sensor_id;sensor_type;location;lat;lon;timestamp;pressure;altitude;pressure_sealevel;temperature;humidity
80502;BME280;70023;51.190;6.808;2024-01-15T00:02:20;100284.56;;;0.82;78.30
80502;BME280;70023;51.190;6.808;2024-01-15T00:07:21;100285.19;;;0.84;78.73
80502;BME280;70023;51.190;6.808;2024-01-15T00:12:22;100286.81;;;0.85;78.72
80502;BME280;70023;51.190;6.808;2024-01-15T00:17:23;100272.06;;;0.84;78.58
80502;BME280;70023;51.190;6.808;2024-01-15T00:22:25;100261.38;;;0.86;78.28
80502;BME280;70023;51.190;6.808;2024-01-15T00:27:27;100261.56;;;0.84;78.52
80502;BME280;70023;51.190;6.808;2024-01-15T00:32:28;100256.44;;;0.83;78.48
80502;BME280;70023;51.190;6.808;2024-01-15T00:37:29;100259.56;;;0.86;78.11
80502;BME280;70023;51.190;6.808;2024-01-15T00:42:30;100247.25;;;0.87;78.41
80502;BME280;70023;51.190;6.808;2024-01-15T00:47:31;100232.16;;;0.81;78.81
80502;BME280;70023;51.190;6.808;2024-01-15T00:52:32;100220.50;;;0.83;78.59
80502;BME280;70023;51.190;6.808;2024-01-15T00:57:33;100232.66;;;0.84;78.57
80502;BME280;70023;51.190;6.808;2024-01-15T01:02:34;100236.09;;;0.85;78.79
80502;BME280;70023;51.190;6.808;2024-01-15T01:07:35;100227.22;;;0.86;78.51
80502;BME280;70023;51.190;6.808;2024-01-15T01:12:36;100219.31;;;0.86;78.64
80502;BME280;70023;51.190;6.808;2024-01-15T01:17:37;100215.53;;;0.88;78.63
80502;BME280;70023;51.190;6.808;2024-01-15T01:22:38;100217.19;;;0.89;78.29
80502;BME280;70023;51.190;6.808;2024-01-15T01:27:39;100216.34;;;0.89;78.32
80502;BME280;70023;51.190;6.808;2024-01-15T01:32:41;100211.91;;;0.89;78.55
80502;BME280;70023;51.190;6.808;2024-01-15T01:37:42;100220.97;;;0.87;78.35
80502;BME280;70023;51.190;6.808;2024-01-15T01:42:43;100214.69;;;0.88;78.66
80502;BME280;70023;51.190;6.808;2024-01-15T01:47:44;100210.28;;;0.88;78.78
80502;BME280;70023;51.190;6.808;2024-01-15T01:52:45;100205.84;;;0.89;78.47
80502;BME280;70023;51.190;6.808;2024-01-15T01:57:46;100209.09;;;0.91;78.55
80502;BME280;70023;51.190;6.808;2024-01-15T02:02:47;100217.81;;;0.91;78.46
80502;BME280;70023;51.190;6.808;2024-01-15T02:07:48;100220.09;;;0.94;78.52
80502;BME280;70023;51.190;6.808;2024-01-15T02:12:49;100233.59;;;0.91;78.86
80502;BME280;70023;51.190;6.808;2024-01-15T02:17:57;100234.03;;;0.95;78.67
80502;BME280;70023;51.190;6.808;2024-01-15T02:28:13;100224.53;;;0.94;78.63
80502;BME280;70023;51.190;6.808;2024-01-15T02:33:18;100219.91;;;0.96;78.70
80502;BME280;70023;51.190;6.808;2024-01-15T02:38:19;100223.38;;;0.96;78.87
80502;BME280;70023;51.190;6.808;2024-01-15T02:43:20;100224.97;;;0.97;78.85
80502;BME280;70023;51.190;6.808;2024-01-15T02:48:21;100214.31;;;0.99;78.78
80502;BME280;70023;51.190;6.808;2024-01-15T02:53:25;100216.13;;;0.98;78.62
80502;BME280;70023;51.190;6.808;2024-01-15T02:58:29;100215.13;;;0.99;78.66
80502;BME280;70023;51.190;6.808;2024-01-15T03:03:29;100216.75;;;1.00;78.82
80502;BME280;70023;51.190;6.808;2024-01-15T03:08:33;100221.81;;;1.02;78.42
80502;BME280;70023;51.190;6.808;2024-01-15T03:13:35;100219.38;;;1.00;78.79
80502;BME280;70023;51.190;6.808;2024-01-15T03:18:37;100224.31;;;1.03;78.81
80502;BME280;70023;51.190;6.808;2024-01-15T03:23:38;100222.50;;;1.04;78.80
80502;BME280;70023;51.190;6.808;2024-01-15T03:28:39;100226.59;;;1.06;78.77
80502;BME280;70023;51.190;6.808;2024-01-15T03:33:40;100222.13;;;1.07;78.72
80502;BME280;70023;51.190;6.808;2024-01-15T03:38:41;100224.75;;;1.07;78.59
80502;BME280;70023;51.190;6.808;2024-01-15T03:43:42;100218.69;;;1.06;78.67
80502;BME280;70023;51.190;6.808;2024-01-15T03:48:43;100215.06;;;1.07;78.58
80502;BME280;70023;51.190;6.808;2024-01-15T03:53:44;100210.63;;;1.08;78.74
80502;BME280;70023;51.190;6.808;2024-01-15T03:58:45;100206.84;;;1.10;78.84
80502;BME280;70023;51.190;6.808;2024-01-15T04:03:46;100202.75;;;1.08;78.79
80502;BME280;70023;51.190;6.808;2024-01-15T04:08:47;100199.94;;;1.09;78.85
80502;BME280;70023;51.190;6.808;2024-01-15T04:13:48;100190.88;;;1.12;78.67
80502;BME280;70023;51.190;6.808;2024-01-15T04:18:49;100188.44;;;1.10;78.58
80502;BME280;70023;51.190;6.808;2024-01-15T04:23:50;100180.34;;;1.12;79.06
80502;BME280;70023;51.190;6.808;2024-01-15T04:28:51;100178.53;;;1.12;78.76
80502;BME280;70023;51.190;6.808;2024-01-15T04:33:52;100173.09;;;1.14;78.67
80502;BME280;70023;51.190;6.808;2024-01-15T04:38:54;100176.56;;;1.14;78.45
80502;BME280;70023;51.190;6.808;2024-01-15T04:43:55;100166.22;;;1.13;78.49
80502;BME280;70023;51.190;6.808;2024-01-15T04:48:56;100164.03;;;1.16;78.67
80502;BME280;70023;51.190;6.808;2024-01-15T04:53:57;100156.16;;;1.16;78.50
80502;BME280;70023;51.190;6.808;2024-01-15T04:58:58;100154.34;;;1.17;78.87
80502;BME280;70023;51.190;6.808;2024-01-15T05:03:59;100162.44;;;1.15;78.68
80502;BME280;70023;51.190;6.808;2024-01-15T05:09:00;100159.59;;;1.17;78.62
80502;BME280;70023;51.190;6.808;2024-01-15T05:14:03;100154.34;;;1.17;78.77
80502;BME280;70023;51.190;6.808;2024-01-15T05:19:04;100149.28;;;1.15;78.78
80502;BME280;70023;51.190;6.808;2024-01-15T05:24:05;100139.22;;;1.19;78.71
80502;BME280;70023;51.190;6.808;2024-01-15T05:29:07;100156.63;;;1.20;78.59
80502;BME280;70023;51.190;6.808;2024-01-15T05:34:09;100156.44;;;1.21;78.68
80502;BME280;70023;51.190;6.808;2024-01-15T05:39:10;100147.75;;;1.21;78.92
80502;BME280;70023;51.190;6.808;2024-01-15T05:44:11;100139.06;;;1.20;78.76
80502;BME280;70023;51.190;6.808;2024-01-15T05:49:12;100145.78;;;1.23;78.64
80502;BME280;70023;51.190;6.808;2024-01-15T05:54:14;100139.50;;;1.24;78.74
80502;BME280;70023;51.190;6.808;2024-01-15T05:59:15;100132.44;;;1.24;78.67
80502;BME280;70023;51.190;6.808;2024-01-15T06:04:16;100129.81;;;1.24;78.71
80502;BME280;70023;51.190;6.808;2024-01-15T06:09:17;100120.94;;;1.25;78.74
80502;BME280;70023;51.190;6.808;2024-01-15T06:14:18;100109.41;;;1.26;78.93
80502;BME280;70023;51.190;6.808;2024-01-15T06:19:19;100107.59;;;1.27;78.53
80502;BME280;70023;51.190;6.808;2024-01-15T06:24:20;100111.03;;;1.27;78.57
80502;BME280;70023;51.190;6.808;2024-01-15T06:29:21;100110.22;;;1.27;78.73
80502;BME280;70023;51.190;6.808;2024-01-15T06:34:28;100113.47;;;1.29;78.61
80502;BME280;70023;51.190;6.808;2024-01-15T06:39:29;100105.44;;;1.30;78.67
80502;BME280;70023;51.190;6.808;2024-01-15T06:44:33;100101.78;;;1.31;78.87
80502;BME280;70023;51.190;6.808;2024-01-15T06:49:34;100101.97;;;1.30;78.71
80502;BME280;70023;51.190;6.808;2024-01-15T06:54:35;100112.31;;;1.31;78.57
80502;BME280;70023;51.190;6.808;2024-01-15T06:59:37;100112.50;;;1.30;78.64
80502;BME280;70023;51.190;6.808;2024-01-15T07:04:38;100113.47;;;1.29;78.68
80502;BME280;70023;51.190;6.808;2024-01-15T07:09:39;100116.13;;;1.29;78.49
80502;BME280;70023;51.190;6.808;2024-01-15T07:14:40;100117.91;;;1.28;78.54
80502;BME280;70023;51.190;6.808;2024-01-15T07:19:41;100103.97;;;1.28;78.62
80502;BME280;70023;51.190;6.808;2024-01-15T07:24:42;100096.09;;;1.28;78.35
80502;BME280;70023;51.190;6.808;2024-01-15T07:29:45;100097.25;;;1.25;79.01
80502;BME280;70023;51.190;6.808;2024-01-15T07:34:46;100105.59;;;1.29;78.80
80502;BME280;70023;51.190;6.808;2024-01-15T07:39:47;100094.25;;;1.28;78.71
80502;BME280;70023;51.190;6.808;2024-01-15T07:44:54;100100.19;;;1.30;78.83
80502;BME280;70023;51.190;6.808;2024-01-15T07:49:58;100087.03;;;1.30;78.89
80502;BME280;70023;51.190;6.808;2024-01-15T07:54:59;100110.50;;;1.32;78.69
80502;BME280;70023;51.190;6.808;2024-01-15T08:00:01;100109.50;;;1.33;78.68
80502;BME280;70023;51.190;6.808;2024-01-15T08:05:04;100107.25;;;1.30;79.07
80502;BME280;70023;51.190;6.808;2024-01-15T08:10:06;100096.53;;;1.31;78.94
80502;BME280;70023;51.190;6.808;2024-01-15T08:15:07;100095.69;;;1.31;79.06
80502;BME280;70023;51.190;6.808;2024-01-15T08:20:09;100093.75;;;1.33;78.73
80502;BME280;70023;51.190;6.808;2024-01-15T08:25:11;100095.53;;;1.32;78.92
80502;BME280;70023;51.190;6.808;2024-01-15T08:30:13;100082.56;;;1.31;78.90
80502;BME280;70023;51.190;6.808;2024-01-15T08:35:14;100083.22;;;1.33;78.87
80502;BME280;70023;51.190;6.808;2024-01-15T08:40:15;100092.28;;;1.30;78.98
80502;BME280;70023;51.190;6.808;2024-01-15T08:45:20;100097.34;;;1.32;79.03
80502;BME280;70023;51.190;6.808;2024-01-15T08:50:21;100093.63;;;1.26;79.36
80502;BME280;70023;51.190;6.808;2024-01-15T08:55:25;100099.25;;;1.23;79.45
80502;BME280;70023;51.190;6.808;2024-01-15T09:00:26;100100.69;;;1.26;79.37
80502;BME280;70023;51.190;6.808;2024-01-15T09:05:27;100105.31;;;1.24;79.20
80502;BME280;70023;51.190;6.808;2024-01-15T09:10:28;100104.88;;;1.20;79.42
80502;BME280;70023;51.190;6.808;2024-01-15T09:15:30;100113.75;;;1.19;79.26
80502;BME280;70023;51.190;6.808;2024-01-15T09:20:31;100117.19;;;1.20;79.48
80502;BME280;70023;51.190;6.808;2024-01-15T09:25:32;100118.84;;;1.21;78.90
80502;BME280;70023;51.190;6.808;2024-01-15T09:30:33;100120.00;;;1.18;79.54
80502;BME280;70023;51.190;6.808;2024-01-15T09:35:34;100125.28;;;1.18;79.22
80502;BME280;70023;51.190;6.808;2024-01-15T09:40:35;100121.47;;;1.21;78.83
80502;BME280;70023;51.190;6.808;2024-01-15T09:45:42;100125.44;;;1.17;79.26
80502;BME280;70023;51.190;6.808;2024-01-15T09:50:44;100138.56;;;1.17;79.37
80502;BME280;70023;51.190;6.808;2024-01-15T09:55:46;100144.66;;;1.17;79.16
80502;BME280;70023;51.190;6.808;2024-01-15T10:00:49;100149.09;;;1.17;79.23
80502;BME280;70023;51.190;6.808;2024-01-15T10:05:52;100141.41;;;1.15;79.40
80502;BME280;70023;51.190;6.808;2024-01-15T10:10:55;100143.84;;;1.17;78.99
80502;BME280;70023;51.190;6.808;2024-01-15T10:15:56;100150.38;;;1.21;79.11
80502;BME280;70023;51.190;6.808;2024-01-15T10:20:58;100143.69;;;1.18;79.34
80502;BME280;70023;51.190;6.808;2024-01-15T10:25:59;100139.22;;;1.19;79.54
80502;BME280;70023;51.190;6.808;2024-01-15T10:31:01;100150.38;;;1.21;79.26
80502;BME280;70023;51.190;6.808;2024-01-15T10:36:02;100145.94;;;1.21;79.81
80502;BME280;70023;51.190;6.808;2024-01-15T10:41:09;100136.22;;;1.22;79.11
80502;BME280;70023;51.190;6.808;2024-01-15T10:46:10;100133.44;;;1.23;79.25
80502;BME280;70023;51.190;6.808;2024-01-15T10:51:11;100149.03;;;1.25;79.38
80502;BME280;70023;51.190;6.808;2024-01-15T10:56:15;100151.31;;;1.28;78.95
80502;BME280;70023;51.190;6.808;2024-01-15T11:01:17;100139.16;;;1.27;79.18
80502;BME280;70023;51.190;6.808;2024-01-15T11:06:19;100144.06;;;1.30;79.47
80502;BME280;70023;51.190;6.808;2024-01-15T11:11:23;100148.13;;;1.32;79.35
80502;BME280;70023;51.190;6.808;2024-01-15T11:16:25;100149.59;;;1.35;79.61
80502;BME280;70023;51.190;6.808;2024-01-15T11:21:56;100149.06;;;1.40;79.51
80502;BME280;70023;51.190;6.808;2024-01-15T11:26:57;100142.78;;;1.41;79.47
80502;BME280;70023;51.190;6.808;2024-01-15T11:31:59;100144.06;;;1.45;79.41
80502;BME280;70023;51.190;6.808;2024-01-15T11:37:02;100146.16;;;1.49;79.56
80502;BME280;70023;51.190;6.808;2024-01-15T11:42:03;100137.53;;;1.55;79.15
80502;BME280;70023;51.190;6.808;2024-01-15T11:47:05;100137.66;;;1.62;79.51
80502;BME280;70023;51.190;6.808;2024-01-15T11:52:08;100139.38;;;1.69;79.55
80502;BME280;70023;51.190;6.808;2024-01-15T11:57:14;100136.34;;;1.72;79.59
80502;BME280;70023;51.190;6.808;2024-01-15T12:02:24;100132.00;;;1.79;79.41
80502;BME280;70023;51.190;6.808;2024-01-15T12:07:25;100139.25;;;1.92;78.86
80502;BME280;70023;51.190;6.808;2024-01-15T12:18:03;100152.13;;;2.01;78.68
80502;BME280;70023;51.190;6.808;2024-01-15T12:23:04;100144.50;;;2.07;78.68
80502;BME280;70023;51.190;6.808;2024-01-15T12:28:10;100131.81;;;2.10;78.33
80502;BME280;70023;51.190;6.808;2024-01-15T12:33:11;100143.22;;;2.17;78.63
80502;BME280;70023;51.190;6.808;2024-01-15T12:38:12;100143.66;;;2.21;78.37
80502;BME280;70023;51.190;6.808;2024-01-15T12:43:13;100137.88;;;2.25;78.70
80502;BME280;70023;51.190;6.808;2024-01-15T12:48:14;100141.56;;;2.31;78.48
80502;BME280;70023;51.190;6.808;2024-01-15T12:53:17;100159.81;;;2.32;78.21
80502;BME280;70023;51.190;6.808;2024-01-15T12:58:18;100163.09;;;2.34;78.16
80502;BME280;70023;51.190;6.808;2024-01-15T13:03:19;100172.25;;;2.38;78.59
80502;BME280;70023;51.190;6.808;2024-01-15T13:08:22;100158.09;;;2.39;78.51
80502;BME280;70023;51.190;6.808;2024-01-15T13:13:25;100163.97;;;2.41;78.34
80502;BME280;70023;51.190;6.808;2024-01-15T13:18:27;100158.72;;;2.41;78.27
80502;BME280;70023;51.190;6.808;2024-01-15T13:23:28;100159.13;;;2.45;78.29
80502;BME280;70023;51.190;6.808;2024-01-15T13:28:29;100156.69;;;2.43;78.31
80502;BME280;70023;51.190;6.808;2024-01-15T13:33:30;100161.97;;;2.43;78.38
80502;BME280;70023;51.190;6.808;2024-01-15T13:38:31;100168.22;;;2.42;78.96
80502;BME280;70023;51.190;6.808;2024-01-15T13:43:39;100176.31;;;2.41;78.56
80502;BME280;70023;51.190;6.808;2024-01-15T13:48:45;100180.78;;;2.40;78.51
80502;BME280;70023;51.190;6.808;2024-01-15T13:53:49;100180.16;;;2.38;78.58
80502;BME280;70023;51.190;6.808;2024-01-15T13:58:51;100189.06;;;2.37;78.90
80502;BME280;70023;51.190;6.808;2024-01-15T14:03:52;100200.59;;;2.36;78.48
80502;BME280;70023;51.190;6.808;2024-01-15T14:08:54;100213.31;;;2.33;78.62
80502;BME280;70023;51.190;6.808;2024-01-15T14:13:55;100215.16;;;2.32;78.92
80502;BME280;70023;51.190;6.808;2024-01-15T14:18:56;100223.03;;;2.32;78.79
80502;BME280;70023;51.190;6.808;2024-01-15T14:23:57;100234.75;;;2.30;78.74
80502;BME280;70023;51.190;6.808;2024-01-15T14:29:01;100224.22;;;2.30;79.00
80502;BME280;70023;51.190;6.808;2024-01-15T14:34:02;100230.47;;;2.29;78.63
80502;BME280;70023;51.190;6.808;2024-01-15T14:39:03;100246.28;;;2.29;78.92
80502;BME280;70023;51.190;6.808;2024-01-15T14:44:04;100266.53;;;2.28;78.76
80502;BME280;70023;51.190;6.808;2024-01-15T14:49:06;100265.09;;;2.26;78.76
80502;BME280;70023;51.190;6.808;2024-01-15T14:54:07;100282.72;;;2.25;78.59
80502;BME280;70023;51.190;6.808;2024-01-15T14:59:09;100293.25;;;2.25;78.72
80502;BME280;70023;51.190;6.808;2024-01-15T15:04:10;100284.69;;;2.23;78.63
80502;BME280;70023;51.190;6.808;2024-01-15T15:09:11;100309.56;;;2.21;78.82
80502;BME280;70023;51.190;6.808;2024-01-15T15:14:12;100315.03;;;2.19;78.57
80502;BME280;70023;51.190;6.808;2024-01-15T15:19:13;100327.38;;;2.19;78.54
80502;BME280;70023;51.190;6.808;2024-01-15T15:24:14;100329.38;;;2.17;78.82
80502;BME280;70023;51.190;6.808;2024-01-15T15:29:15;100331.19;;;2.16;78.77
80502;BME280;70023;51.190;6.808;2024-01-15T15:34:19;100332.38;;;2.14;78.60
80502;BME280;70023;51.190;6.808;2024-01-15T15:39:20;100333.72;;;2.10;78.69
80502;BME280;70023;51.190;6.808;2024-01-15T15:44:22;100348.72;;;2.09;78.64
80502;BME280;70023;51.190;6.808;2024-01-15T15:49:23;100353.53;;;2.06;78.64
80502;BME280;70023;51.190;6.808;2024-01-15T15:54:24;100369.19;;;1.99;78.63
80502;BME280;70023;51.190;6.808;2024-01-15T15:59:26;100380.81;;;1.90;79.37
80502;BME280;70023;51.190;6.808;2024-01-15T16:04:27;100383.97;;;1.85;79.35
80502;BME280;70023;51.190;6.808;2024-01-15T16:09:28;100392.22;;;1.82;79.21
80502;BME280;70023;51.190;6.808;2024-01-15T16:14:30;100390.28;;;1.76;79.29
80502;BME280;70023;51.190;6.808;2024-01-15T16:19:31;100397.72;;;1.73;79.40
80502;BME280;70023;51.190;6.808;2024-01-15T16:24:33;100415.50;;;1.71;79.34
80502;BME280;70023;51.190;6.808;2024-01-15T16:29:34;100404.84;;;1.64;79.35
80502;BME280;70023;51.190;6.808;2024-01-15T16:34:35;100405.00;;;1.63;79.46
80502;BME280;70023;51.190;6.808;2024-01-15T16:39:38;100416.06;;;1.58;79.39
80502;BME280;70023;51.190;6.808;2024-01-15T16:44:40;100422.69;;;1.54;79.60
80502;BME280;70023;51.190;6.808;2024-01-15T16:49:41;100426.66;;;1.50;79.59
80502;BME280;70023;51.190;6.808;2024-01-15T16:54:42;100435.03;;;1.46;79.46
80502;BME280;70023;51.190;6.808;2024-01-15T16:59:43;100437.66;;;1.46;79.67
80502;BME280;70023;51.190;6.808;2024-01-15T17:04:44;100447.09;;;1.40;79.64
80502;BME280;70023;51.190;6.808;2024-01-15T17:09:45;100446.44;;;1.38;79.55
80502;BME280;70023;51.190;6.808;2024-01-15T17:14:46;100452.19;;;1.33;79.70
80502;BME280;70023;51.190;6.808;2024-01-15T17:19:48;100452.91;;;1.27;79.79
80502;BME280;70023;51.190;6.808;2024-01-15T17:24:49;100462.47;;;1.20;79.87
80502;BME280;70023;51.190;6.808;2024-01-15T17:29:52;100463.78;;;1.16;79.81
80502;BME280;70023;51.190;6.808;2024-01-15T17:34:55;100472.16;;;1.12;80.41
80502;BME280;70023;51.190;6.808;2024-01-15T17:39:56;100487.47;;;1.08;79.95
80502;BME280;70023;51.190;6.808;2024-01-15T17:44:58;100497.34;;;1.06;80.41
80502;BME280;70023;51.190;6.808;2024-01-15T17:50:00;100497.34;;;1.06;80.02
80502;BME280;70023;51.190;6.808;2024-01-15T17:55:01;100510.66;;;1.05;79.97
80502;BME280;70023;51.190;6.808;2024-01-15T18:00:03;100516.56;;;1.07;79.59
80502;BME280;70023;51.190;6.808;2024-01-15T18:05:07;100512.28;;;1.06;79.98
80502;BME280;70023;51.190;6.808;2024-01-15T18:10:09;100518.53;;;1.05;79.85
80502;BME280;70023;51.190;6.808;2024-01-15T18:15:13;100525.59;;;1.04;80.19
80502;BME280;70023;51.190;6.808;2024-01-15T18:20:16;100537.13;;;1.03;80.01
80502;BME280;70023;51.190;6.808;2024-01-15T18:25:20;100536.78;;;1.06;79.74
80502;BME280;70023;51.190;6.808;2024-01-15T18:30:21;100551.09;;;1.04;79.94
80502;BME280;70023;51.190;6.808;2024-01-15T18:35:23;100552.56;;;1.06;79.89
80502;BME280;70023;51.190;6.808;2024-01-15T18:40:25;100557.97;;;1.05;79.87
80502;BME280;70023;51.190;6.808;2024-01-15T18:45:26;100552.06;;;1.03;79.88
80502;BME280;70023;51.190;6.808;2024-01-15T18:50:28;100568.00;;;1.01;80.01
80502;BME280;70023;51.190;6.808;2024-01-15T18:55:29;100575.06;;;1.01;79.48
80502;BME280;70023;51.190;6.808;2024-01-15T19:00:30;100584.28;;;0.97;79.63
80502;BME280;70023;51.190;6.808;2024-01-15T19:05:31;100575.06;;;0.93;80.24
80502;BME280;70023;51.190;6.808;2024-01-15T19:10:32;100584.75;;;0.92;80.21
80502;BME280;70023;51.190;6.808;2024-01-15T19:15:33;100596.91;;;0.93;80.02
80502;BME280;70023;51.190;6.808;2024-01-15T19:20:34;100597.09;;;0.92;79.95
80502;BME280;70023;51.190;6.808;2024-01-15T19:25:35;100614.50;;;0.93;80.12
80502;BME280;70023;51.190;6.808;2024-01-15T19:30:45;100618.13;;;0.92;80.10
80502;BME280;70023;51.190;6.808;2024-01-15T19:35:49;100610.25;;;0.92;79.90
80502;BME280;70023;51.190;6.808;2024-01-15T19:40:51;100618.91;;;0.92;79.76
80502;BME280;70023;51.190;6.808;2024-01-15T19:45:52;100623.38;;;0.92;79.89
80502;BME280;70023;51.190;6.808;2024-01-15T19:50:53;100629.59;;;0.91;79.84
80502;BME280;70023;51.190;6.808;2024-01-15T19:55:55;100645.19;;;0.92;79.80
80502;BME280;70023;51.190;6.808;2024-01-15T20:00:56;100634.69;;;0.92;79.81
80502;BME280;70023;51.190;6.808;2024-01-15T20:05:59;100639.28;;;0.90;79.80
80502;BME280;70023;51.190;6.808;2024-01-15T20:11:00;100633.56;;;0.87;80.05
80502;BME280;70023;51.190;6.808;2024-01-15T20:16:09;100647.34;;;0.89;79.56
80502;BME280;70023;51.190;6.808;2024-01-15T20:21:15;100650.47;;;0.84;79.88
80502;BME280;70023;51.190;6.808;2024-01-15T20:26:16;100649.66;;;0.84;79.81
80502;BME280;70023;51.190;6.808;2024-01-15T20:31:20;100663.75;;;0.83;79.89
80502;BME280;70023;51.190;6.808;2024-01-15T20:36:24;100668.03;;;0.76;79.73
80502;BME280;70023;51.190;6.808;2024-01-15T20:41:26;100678.41;;;0.77;79.92
80502;BME280;70023;51.190;6.808;2024-01-15T20:46:27;100680.19;;;0.77;79.98
80502;BME280;70023;51.190;6.808;2024-01-15T20:51:28;100684.16;;;0.73;80.04
80502;BME280;70023;51.190;6.808;2024-01-15T20:56:29;100696.28;;;0.74;79.90
80502;BME280;70023;51.190;6.808;2024-01-15T21:01:30;100692.16;;;0.71;79.80
80502;BME280;70023;51.190;6.808;2024-01-15T21:06:31;100689.53;;;0.71;80.25
80502;BME280;70023;51.190;6.808;2024-01-15T21:11:32;100692.34;;;0.70;79.89
80502;BME280;70023;51.190;6.808;2024-01-15T21:16:33;100696.09;;;0.67;79.78
80502;BME280;70023;51.190;6.808;2024-01-15T21:21:34;100715.47;;;0.66;79.68
80502;BME280;70023;51.190;6.808;2024-01-15T21:26:35;100726.63;;;0.60;79.96
80502;BME280;70023;51.190;6.808;2024-01-15T21:31:37;100710.88;;;0.60;80.35
80502;BME280;70023;51.190;6.808;2024-01-15T21:36:38;100722.22;;;0.60;80.21
80502;BME280;70023;51.190;6.808;2024-01-15T21:41:39;100712.84;;;0.58;80.64
80502;BME280;70023;51.190;6.808;2024-01-15T21:46:41;100723.84;;;0.61;79.84
80502;BME280;70023;51.190;6.808;2024-01-15T21:51:42;100716.31;;;0.66;80.04
80502;BME280;70023;51.190;6.808;2024-01-15T21:56:43;100715.00;;;0.62;80.18
80502;BME280;70023;51.190;6.808;2024-01-15T22:01:45;100728.78;;;0.64;80.32
80502;BME280;70023;51.190;6.808;2024-01-15T22:06:51;100735.53;;;0.67;79.99
80502;BME280;70023;51.190;6.808;2024-01-15T22:11:52;100737.16;;;0.68;79.90
80502;BME280;70023;51.190;6.808;2024-01-15T22:16:53;100738.81;;;0.69;79.96
80502;BME280;70023;51.190;6.808;2024-01-15T22:21:55;100738.63;;;0.71;80.06
80502;BME280;70023;51.190;6.808;2024-01-15T22:26:56;100749.97;;;0.71;79.94
80502;BME280;70023;51.190;6.808;2024-01-15T22:31:57;100759.50;;;0.72;80.33
80502;BME280;70023;51.190;6.808;2024-01-15T22:36:58;100772.66;;;0.72;80.25
80502;BME280;70023;51.190;6.808;2024-01-15T22:41:59;100773.97;;;0.76;79.79
80502;BME280;70023;51.190;6.808;2024-01-15T22:47:00;100776.59;;;0.76;79.89
80502;BME280;70023;51.190;6.808;2024-01-15T22:52:01;100770.50;;;0.76;79.78
80502;BME280;70023;51.190;6.808;2024-01-15T22:57:03;100776.09;;;0.81;79.67
80502;BME280;70023;51.190;6.808;2024-01-15T23:02:04;100777.78;;;0.82;80.01
80502;BME280;70023;51.190;6.808;2024-01-15T23:07:05;100776.94;;;0.81;79.77
80502;BME280;70023;51.190;6.808;2024-01-15T23:12:07;100792.53;;;0.83;79.96
80502;BME280;70023;51.190;6.808;2024-01-15T23:17:09;100802.91;;;0.84;79.89
80502;BME280;70023;51.190;6.808;2024-01-15T23:22:10;100800.94;;;0.86;79.59
80502;BME280;70023;51.190;6.808;2024-01-15T23:27:12;100811.75;;;0.83;79.67
80502;BME280;70023;51.190;6.808;2024-01-15T23:32:13;100817.53;;;0.87;79.87
80502;BME280;70023;51.190;6.808;2024-01-15T23:37:14;100815.56;;;0.89;80.23
80502;BME280;70023;51.190;6.808;2024-01-15T23:42:15;100826.38;;;0.86;80.04
80502;BME280;70023;51.190;6.808;2024-01-15T23:47:16;100821.78;;;0.88;79.91
80502;BME280;70023;51.190;6.808;2024-01-15T23:52:17;100817.38;;;0.88;80.07
80502;BME280;70023;51.190;6.808;2024-01-15T23:57:18;100824.59;;;0.86;79.58
